createdAt,value
2022-11-28T00:00:55.551Z,-10993.19
2022-11-28T00:04:02.329Z,-10985.31
2022-11-28T00:07:09.313Z,-10992.91
2022-11-28T00:10:17.515Z,-11000.59
2022-11-28T00:13:23.782Z,-11004.94
2022-11-28T00:16:30.258Z,-10995.41
2022-11-28T00:19:37.868Z,-10994.44
2022-11-28T00:22:44.397Z,-10981.97
2022-11-28T00:25:59.771Z,-11002.28
2022-11-28T00:29:06.865Z,-10994.00
2022-11-28T00:32:13.055Z,-10989.09
2022-11-28T00:35:19.576Z,-11002.16
2022-11-28T00:38:25.754Z,-10996.53
2022-11-28T00:41:35.432Z,-10982.38
2022-11-28T00:44:41.943Z,-10978.88
2022-11-28T00:47:49.279Z,-10990.50
2022-11-28T00:50:55.724Z,-10987.69
2022-11-28T00:54:04.558Z,-10998.22
2022-11-28T00:57:12.356Z,-11002.97
2022-11-28T01:00:19.500Z,-10990.50
2022-11-28T01:03:25.685Z,-10995.97
2022-11-28T01:06:34.323Z,-10985.03
2022-11-28T01:09:40.932Z,-10981.41
2022-11-28T01:12:48.693Z,-10979.72
2022-11-28T01:15:55.395Z,-10982.25
2022-11-28T01:19:01.882Z,-10996.81
2022-11-28T01:22:08.204Z,-10994.16
2022-11-28T01:25:14.607Z,-10983.06
2022-11-28T01:28:22.405Z,-10990.09
2022-11-28T01:31:44.023Z,-10996.25
2022-11-28T01:34:50.755Z,-10995.97
2022-11-28T01:37:57.135Z,-10996.25
2022-11-28T01:41:03.825Z,-10989.53
2022-11-28T01:44:57.751Z,-10993.72
2022-11-28T01:48:05.878Z,-10986.16
2022-11-28T01:51:12.258Z,-10996.97
2022-11-28T01:54:21.854Z,-10996.69
2022-11-28T01:57:29.518Z,-10987.56
2022-11-28T02:00:35.826Z,-10986.16
2022-11-28T02:03:46.327Z,-10980.00
2022-11-28T02:06:52.817Z,-10996.41
2022-11-28T02:09:59.263Z,-10998.78
2022-11-28T02:13:21.029Z,-10997.66
2022-11-28T02:16:47.393Z,-11000.75
2022-11-28T02:20:46.463Z,-11003.13
2022-11-28T02:24:33.089Z,-11000.19
2022-11-28T02:28:20.033Z,-10994.84
2022-11-28T02:31:44.443Z,-10984.75
2022-11-28T02:34:59.204Z,-10996.97
2022-11-28T02:38:14.309Z,-10999.91
2022-11-28T02:41:32.067Z,-11000.88
2022-11-28T02:44:48.903Z,-10981.69
2022-11-28T02:48:03.058Z,-10988.81
2022-11-28T02:51:14.675Z,-10995.13
2022-11-28T02:54:23.379Z,-10994.44
2022-11-28T02:57:47.260Z,-10995.28
2022-11-28T03:00:54.266Z,-10994.72
2022-11-28T03:04:14.045Z,-10987.28
2022-11-28T03:07:37.103Z,-10987.16
2022-11-28T03:10:52.021Z,-10989.25
2022-11-28T03:14:05.363Z,-10990.78
2022-11-28T03:17:20.074Z,-10992.63
2022-11-28T03:20:36.557Z,-10989.25
2022-11-28T03:23:50.087Z,-10987.16
2022-11-28T03:27:03.225Z,-10977.47
2022-11-28T03:30:17.004Z,-10986.44
2022-11-28T03:33:26.945Z,-10985.47
2022-11-28T03:36:36.790Z,-10987.56
2022-11-28T03:39:50.056Z,-10977.75
2022-11-28T03:43:02.800Z,-10984.19
2022-11-28T03:46:14.787Z,-10986.44
2022-11-28T03:49:25.979Z,-10979.00
2022-11-28T03:52:36.187Z,-10980.69
2022-11-28T03:55:49.831Z,-10991.06
2022-11-28T03:59:01.733Z,-10990.78
2022-11-28T04:02:17.777Z,-10985.31
2022-11-28T04:05:29.388Z,-10983.63
2022-11-28T04:08:40.922Z,-10988.41
2022-11-28T04:11:53.492Z,-10985.31
2022-11-28T04:15:05.331Z,-10979.44
2022-11-28T04:18:21.032Z,-10982.50
2022-11-28T04:21:32.381Z,-10985.03
2022-11-28T04:24:43.053Z,-10988.13
2022-11-28T04:27:55.534Z,-10993.72
2022-11-28T04:31:05.818Z,-10993.59
2022-11-28T04:34:16.065Z,-10994.44
2022-11-28T04:37:24.681Z,-10993.88
2022-11-28T04:40:34.397Z,-10987.00
2022-11-28T04:43:45.142Z,-10982.50
2022-11-28T04:46:54.602Z,-10977.63
2022-11-28T04:50:00.902Z,-10978.88
2022-11-28T04:53:11.622Z,-10984.75
2022-11-28T04:56:23.039Z,-10984.75
2022-11-28T04:59:33.065Z,-10984.34
2022-11-28T05:02:41.924Z,-10990.09
2022-11-28T05:05:50.489Z,-10979.16
2022-11-28T05:08:57.465Z,-10986.72
2022-11-28T05:12:04.839Z,-10993.03
2022-11-28T05:15:27.484Z,-10992.47
2022-11-28T05:18:33.673Z,-10995.13
2022-11-28T05:21:40.278Z,-10979.16
2022-11-28T05:24:46.707Z,-10983.50
2022-11-28T05:27:53.219Z,-10979.56
2022-11-28T05:31:02.003Z,-10989.81
2022-11-28T05:34:08.308Z,-10982.78
2022-11-28T05:37:14.769Z,-10987.16
2022-11-28T05:40:21.133Z,-10980.84
2022-11-28T05:43:27.188Z,-10984.34
2022-11-28T05:46:34.660Z,-10980.56
2022-11-28T05:49:40.901Z,-10988.41
2022-11-28T05:52:47.344Z,-10991.50
2022-11-28T05:55:53.873Z,-10976.50
2022-11-28T05:59:00.430Z,-10977.34
2022-11-28T06:02:09.066Z,-10982.50
2022-11-28T06:05:40.338Z,-10990.38
2022-11-28T06:08:42.102Z,-10978.88
2022-11-28T06:11:48.438Z,-10983.22
2022-11-28T06:14:54.664Z,-10991.22
2022-11-28T06:18:02.655Z,-10993.44
2022-11-28T06:21:11.116Z,-10988.25
2022-11-28T06:24:17.730Z,-10993.59
2022-11-28T06:27:23.832Z,-10990.94
2022-11-28T06:30:30.286Z,-10999.06
2022-11-28T06:33:37.961Z,-10998.78
2022-11-28T06:36:44.752Z,-10994.56
2022-11-28T06:39:51.669Z,-11001.59
2022-11-28T06:42:58.229Z,-10999.19
2022-11-28T06:46:05.069Z,-10989.81
2022-11-28T06:49:13.940Z,-10989.25
2022-11-28T06:52:20.256Z,-10987.28
2022-11-28T06:55:26.437Z,-10987.00
2022-11-28T06:58:32.685Z,-10993.19
2022-11-28T07:01:38.805Z,-10991.91
2022-11-28T07:04:46.646Z,-10988.97
2022-11-28T07:07:54.496Z,-11000.47
2022-11-28T07:11:09.633Z,-10998.50
2022-11-28T07:14:16.021Z,-11002.44
2022-11-28T07:17:22.079Z,-11000.88
2022-11-28T07:20:29.776Z,-11007.19
2022-11-28T07:23:36.423Z,-11011.41
2022-11-28T07:26:42.998Z,-11017.56
2022-11-28T07:29:49.709Z,-11023.88
2022-11-28T07:32:55.809Z,-11020.94
2022-11-28T07:36:05.363Z,-11013.38
2022-11-28T07:39:17.701Z,-11025.84
2022-11-28T07:42:24.075Z,-11015.03
2022-11-28T07:45:47.497Z,-11020.38
2022-11-28T07:48:57.020Z,-11030.19
2022-11-28T07:52:04.773Z,-11033.69
2022-11-28T07:55:11.267Z,-11028.66
2022-11-28T07:58:17.229Z,-11031.31
2022-11-28T08:01:25.949Z,-11032.16
2022-11-28T08:04:32.166Z,-11029.63
2022-11-28T08:07:40.328Z,-11017.00
2022-11-28T08:10:47.200Z,-11029.91
2022-11-28T08:13:56.511Z,-11025.56
2022-11-28T08:17:04.683Z,-11025.72
2022-11-28T08:20:12.059Z,-11024.03
2022-11-28T08:23:19.640Z,-11019.81
2022-11-28T08:26:30.534Z,-11029.34
2022-11-28T08:29:37.100Z,-11035.09
2022-11-28T08:32:43.333Z,-11038.19
2022-11-28T08:35:49.415Z,-11038.75
2022-11-28T08:39:26.571Z,-11037.63
2022-11-28T08:42:32.725Z,-11039.31
2022-11-28T08:45:39.718Z,-11034.41
2022-11-28T08:48:46.504Z,-11031.31
2022-11-28T08:51:53.516Z,-11030.19
2022-11-28T08:55:01.117Z,-11034.69
2022-11-28T08:58:21.158Z,-11039.31
2022-11-28T09:01:28.363Z,-11033.84
2022-11-28T09:04:34.774Z,-11046.03
2022-11-28T09:07:53.535Z,-11055.44
2022-11-28T09:11:01.082Z,-11044.50
2022-11-28T09:14:07.869Z,-11045.63
2022-11-28T09:17:15.822Z,-11051.09
2022-11-28T09:20:22.241Z,-11048.84
2022-11-28T09:23:29.318Z,-11048.00
2022-11-28T09:26:36.976Z,-11040.84
2022-11-28T09:29:43.376Z,-11037.63
2022-11-28T09:32:51.075Z,-11051.25
2022-11-28T09:35:58.407Z,-11040.56
2022-11-28T09:39:18.523Z,-11057.84
2022-11-28T09:42:31.945Z,-11055.72
2022-11-28T09:45:38.466Z,-11046.47
2022-11-28T09:48:49.511Z,-11053.47
2022-11-28T09:52:00.602Z,-11065.69
2022-11-28T09:55:17.371Z,-11059.09
2022-11-28T09:58:30.570Z,-11052.34
2022-11-28T10:01:43.915Z,-11052.63
2022-11-28T10:05:00.068Z,-11052.50
2022-11-28T10:08:17.905Z,-11055.44
2022-11-28T10:11:36.554Z,-11049.00
2022-11-28T10:15:27.808Z,-11040.84
2022-11-28T10:18:41.571Z,-11050.25
2022-11-28T10:21:56.444Z,-11054.03
2022-11-28T10:25:13.246Z,-11052.06
2022-11-28T10:28:23.924Z,-11056.84
2022-11-28T10:31:34.668Z,-11056.16
2022-11-28T10:34:46.439Z,-11058.41
2022-11-28T10:37:54.042Z,-11045.34
2022-11-28T10:41:07.422Z,-11049.00
2022-11-28T10:44:21.678Z,-11043.81
2022-11-28T10:47:51.572Z,-11038.59
2022-11-28T10:51:06.263Z,-11050.41
2022-11-28T10:54:27.052Z,-11052.06
2022-11-28T10:57:41.109Z,-11046.59
2022-11-28T11:00:49.761Z,-11052.06
2022-11-28T11:03:55.938Z,-11055.44
2022-11-28T11:07:20.996Z,-11042.13
2022-11-28T11:10:48.871Z,-11045.22
2022-11-28T11:14:06.227Z,-11046.59
2022-11-28T11:17:29.019Z,-11047.44
2022-11-28T11:20:40.049Z,-11047.88
2022-11-28T11:23:48.667Z,-11046.47
2022-11-28T11:26:55.516Z,-11048.72
2022-11-28T11:30:01.623Z,-11048.16
2022-11-28T11:33:15.198Z,-11045.78
2022-11-28T11:36:28.169Z,-11047.88
2022-11-28T11:39:47.208Z,-11045.06
2022-11-28T11:42:56.627Z,-11043.81
2022-11-28T11:46:08.569Z,-11047.03
2022-11-28T11:49:29.806Z,-11043.38
2022-11-28T11:52:35.916Z,-11049.69
2022-11-28T11:55:50.319Z,-11052.34
2022-11-28T11:58:58.849Z,-11052.63
2022-11-28T12:02:21.304Z,-11058.41
2022-11-28T12:05:46.597Z,-11060.22
2022-11-28T12:09:09.500Z,-11050.97
2022-11-28T12:12:22.975Z,-11046.75
2022-11-28T12:15:56.032Z,-11047.31
2022-11-28T12:19:14.752Z,-11046.47
2022-11-28T12:22:30.131Z,-11049.84
2022-11-28T12:25:45.635Z,-11048.84
2022-11-28T12:29:09.548Z,-11052.63
2022-11-28T12:32:30.164Z,-11048.44
2022-11-28T12:35:41.155Z,-11043.38
2022-11-28T12:39:15.570Z,-11055.16
2022-11-28T12:42:34.404Z,-11055.72
2022-11-28T12:45:52.670Z,-11051.94
2022-11-28T12:49:14.402Z,-11052.06
2022-11-28T12:52:32.945Z,-11057.69
2022-11-28T12:55:49.726Z,-11053.47
2022-11-28T12:59:03.474Z,-11059.53
2022-11-28T13:02:26.567Z,-11056.16
2022-11-28T13:05:43.514Z,-11061.06
2022-11-28T13:09:02.819Z,-11053.91
2022-11-28T13:12:35.882Z,-11057.69
2022-11-28T13:15:54.756Z,-11047.44
2022-11-28T13:19:09.577Z,-11057.97
2022-11-28T13:22:33.507Z,-11055.31
2022-11-28T13:25:46.640Z,-11049.28
2022-11-28T13:29:03.258Z,-11054.59
2022-11-28T13:32:16.774Z,-11050.97
2022-11-28T13:35:25.539Z,-11053.47
2022-11-28T13:39:13.082Z,-11058.81
2022-11-28T13:43:02.493Z,-11056.00
2022-11-28T13:46:03.070Z,-11052.63
2022-11-28T13:49:25.304Z,-11048.00
2022-11-28T13:52:43.823Z,-11049.56
2022-11-28T13:55:50.934Z,-11046.03
2022-11-28T13:59:00.907Z,-11045.91
2022-11-28T14:02:23.740Z,-11053.19
2022-11-28T14:05:35.054Z,-11052.78
2022-11-28T14:08:45.170Z,-11051.78
2022-11-28T14:12:05.447Z,-11059.38
2022-11-28T14:15:25.587Z,-11052.78
2022-11-28T14:18:56.629Z,-11053.47
2022-11-28T14:22:32.437Z,-11044.78
2022-11-28T14:25:45.139Z,-11046.03
2022-11-28T14:28:51.987Z,-11045.06
2022-11-28T14:35:57.025Z,-11039.31
2022-11-28T14:39:31.219Z,-11045.50
2022-11-28T14:46:29.291Z,-11049.28
2022-11-28T14:49:35.968Z,-11048.00
2022-11-28T14:52:43.472Z,-11041.97
2022-11-28T14:55:49.768Z,-11041.97
2022-11-28T14:59:04.663Z,-11043.38
2022-11-28T15:02:36.417Z,-11045.06
2022-11-28T15:05:46.564Z,-11041.69
2022-11-28T15:09:04.296Z,-11042.81
2022-11-28T15:12:18.999Z,-11042.41
2022-11-28T15:15:26.999Z,-11039.72
2022-11-28T15:18:34.579Z,-11044.78
2022-11-28T15:21:59.943Z,-11037.22
2022-11-28T15:25:18.948Z,-11039.16
2022-11-28T15:28:28.380Z,-11039.59
2022-11-28T15:31:36.357Z,-11035.09
2022-11-28T15:34:42.990Z,-11027.94
2022-11-28T15:37:51.946Z,-11034.69
2022-11-28T15:41:00.359Z,-11040.56
2022-11-28T15:44:06.785Z,-11035.25
2022-11-28T15:47:20.794Z,-11038.34
2022-11-28T15:50:29.315Z,-11032.16
2022-11-28T15:53:41.149Z,-11035.81
2022-11-28T15:56:57.725Z,-11037.91
2022-11-28T16:00:05.408Z,-11033.56
2022-11-28T16:03:17.942Z,-11036.22
2022-11-28T16:06:40.006Z,-11034.53
2022-11-28T16:09:59.755Z,-11034.13
2022-11-28T16:13:15.044Z,-11027.09
2022-11-28T16:16:24.608Z,-11032.44
2022-11-28T16:19:35.584Z,-11037.78
2022-11-28T16:22:41.972Z,-11031.31
2022-11-28T16:26:00.245Z,-11032.44
2022-11-28T16:29:15.563Z,-11031.88
2022-11-28T16:32:26.097Z,-11031.16
2022-11-28T16:35:39.029Z,-11030.63
2022-11-28T16:38:47.326Z,-11034.81
2022-11-28T16:42:05.918Z,-11032.72
2022-11-28T16:45:18.658Z,-11032.00
2022-11-28T16:48:27.250Z,-11029.22
2022-11-28T16:51:40.217Z,-11032.00
2022-11-28T16:55:00.370Z,-11031.72
2022-11-28T16:58:13.231Z,-11032.72
2022-11-28T17:01:21.613Z,-11030.47
2022-11-28T17:04:29.821Z,-11028.94
2022-11-28T17:07:50.471Z,-11031.31
2022-11-28T17:10:57.045Z,-11030.19
2022-11-28T17:14:10.089Z,-11026.00
2022-11-28T17:17:21.428Z,-11031.03
2022-11-28T17:20:27.807Z,-11029.78
2022-11-28T17:23:35.608Z,-11028.66
2022-11-28T17:26:42.000Z,-11022.91
2022-11-28T17:29:48.484Z,-11013.09
2022-11-28T17:32:54.742Z,-11019.81
2022-11-28T17:36:03.116Z,-11020.94
2022-11-28T17:39:11.391Z,-11020.22
2022-11-28T17:42:17.739Z,-11022.34
2022-11-28T17:45:24.290Z,-11020.66
2022-11-28T17:48:30.697Z,-11016.72
2022-11-28T17:51:37.228Z,-11022.06
2022-11-28T17:54:44.815Z,-11024.72
2022-11-28T17:57:51.262Z,-11024.31
2022-11-28T18:01:00.826Z,-11026.81
2022-11-28T18:04:07.677Z,-11027.37
2022-11-28T18:07:14.192Z,-11023.88
2022-11-28T18:10:36.032Z,-11024.88
2022-11-28T18:13:42.672Z,-11026.81
2022-11-28T18:16:49.481Z,-11016.16
2022-11-28T18:19:57.642Z,-11019.13
2022-11-28T18:23:04.319Z,-11025.16
2022-11-28T18:26:14.484Z,-11023.88
2022-11-28T18:29:20.724Z,-11022.62
2022-11-28T18:32:27.161Z,-11020.22
2022-11-28T18:35:33.235Z,-11024.59
2022-11-28T18:38:39.497Z,-11023.75
2022-11-28T18:41:47.087Z,-11019.25
2022-11-28T18:44:53.666Z,-11023.47
2022-11-28T18:48:00.483Z,-11027.66
2022-11-28T18:51:12.266Z,-11024.72
2022-11-28T18:54:21.283Z,-11026.28
2022-11-28T18:57:32.769Z,-11027.09
2022-11-28T19:00:39.496Z,-11014.91
2022-11-28T19:03:50.005Z,-11014.75
2022-11-28T19:06:56.618Z,-11008.47
2022-11-28T19:10:02.816Z,-11013.38
2022-11-28T19:13:10.598Z,-11019.94
2022-11-28T19:16:31.942Z,-11018.28
2022-11-28T19:19:39.990Z,-11017.72
2022-11-28T19:22:46.433Z,-11021.06
2022-11-28T19:25:53.250Z,-11023.47
2022-11-28T19:29:01.526Z,-11018.97
2022-11-28T19:32:07.980Z,-11019.81
2022-11-28T19:35:14.577Z,-11015.88
2022-11-28T19:38:20.882Z,-11017.72
2022-11-28T19:41:27.252Z,-11014.91
2022-11-28T19:44:34.991Z,-11014.19
2022-11-28T19:47:42.439Z,-11018.28
2022-11-28T19:50:50.240Z,-11018.13
2022-11-28T19:54:02.696Z,-11016.44
2022-11-28T19:57:11.461Z,-11005.38
2022-11-28T20:00:20.104Z,-11016.16
2022-11-28T20:03:26.306Z,-11009.56
2022-11-28T20:06:33.400Z,-11007.47
2022-11-28T20:09:39.891Z,-11009.16
2022-11-28T20:12:46.118Z,-11016.16
2022-11-28T20:15:53.883Z,-11016.44
2022-11-28T20:19:13.085Z,-11019.53
2022-11-28T20:22:33.313Z,-11015.59
2022-11-28T20:25:39.929Z,-11011.97
2022-11-28T20:28:46.924Z,-11009.84
2022-11-28T20:31:57.297Z,-11013.50
2022-11-28T20:35:04.998Z,-11015.03
2022-11-28T20:38:11.025Z,-11011.13
2022-11-28T20:41:19.287Z,-11012.38
2022-11-28T20:44:25.398Z,-11020.78
2022-11-28T20:47:35.153Z,-11021.78
2022-11-28T20:50:44.470Z,-11014.75
2022-11-28T20:53:50.705Z,-11013.78
2022-11-28T21:00:26.727Z,-11013.22
2022-11-28T21:03:49.320Z,-11019.25
2022-11-28T21:06:55.567Z,-11020.94
2022-11-28T21:10:03.847Z,-11017.84
2022-11-28T21:13:10.944Z,-11020.38
2022-11-28T21:16:20.103Z,-11018.84
2022-11-28T21:19:42.399Z,-11021.50
2022-11-28T21:22:49.051Z,-11018.13
2022-11-28T21:25:55.373Z,-11012.94
2022-11-28T21:29:05.887Z,-11020.94
2022-11-28T21:32:13.746Z,-11024.03
2022-11-28T21:35:21.775Z,-11019.81
2022-11-28T21:38:28.292Z,-11021.34
2022-11-28T21:41:34.748Z,-11022.19
2022-11-28T21:44:40.976Z,-11021.63
2022-11-28T21:47:47.502Z,-11014.91
2022-11-28T21:50:54.963Z,-11015.59
2022-11-28T21:54:13.513Z,-11024.31
2022-11-28T21:57:19.657Z,-11018.84
2022-11-28T22:00:52.227Z,-11022.34
2022-11-28T22:03:53.414Z,-11023.59
2022-11-28T22:07:01.157Z,-11025.16
2022-11-28T22:10:09.096Z,-11019.81
2022-11-28T22:13:15.271Z,-11020.22
2022-11-28T22:16:23.272Z,-11026.41
2022-11-28T22:19:29.702Z,-11023.88
2022-11-28T22:22:50.972Z,-11028.78
2022-11-28T22:25:57.419Z,-11025.16
2022-11-28T22:29:04.175Z,-11031.16
2022-11-28T22:32:10.417Z,-11028.09
2022-11-28T22:35:16.948Z,-11025.16
2022-11-28T22:38:24.899Z,-11019.53
2022-11-28T22:41:31.219Z,-11016.16
2022-11-28T22:44:37.868Z,-11012.66
2022-11-28T22:47:44.212Z,-11011.69
2022-11-28T22:51:03.762Z,-11015.88
2022-11-28T22:54:13.583Z,-11010.69
2022-11-28T22:57:20.187Z,-11011.97
2022-11-28T23:00:26.697Z,-11017.84
2022-11-28T23:03:33.056Z,-11020.94
2022-11-28T23:06:39.535Z,-11021.34
2022-11-28T23:09:47.095Z,-11011.81
2022-11-28T23:12:53.398Z,-11017.28
2022-11-28T23:16:10.413Z,-11015.19
2022-11-28T23:19:19.124Z,-11013.94
2022-11-28T23:22:25.372Z,-11013.09
2022-11-28T23:25:33.211Z,-11006.34
2022-11-28T23:28:39.963Z,-11018.28
2022-11-28T23:31:47.183Z,-11019.66
2022-11-28T23:35:03.977Z,-11013.94
2022-11-28T23:38:10.461Z,-11012.53
2022-11-28T23:41:18.307Z,-11018.84
2022-11-28T23:44:38.279Z,-11017.56
2022-11-28T23:47:44.200Z,-11022.34
2022-11-28T23:50:50.493Z,-11012.25
2022-11-28T23:53:56.478Z,-11008.19
2022-11-28T23:57:04.205Z,-11016.03
